createdAt,value
2022-10-05T00:00:57.772Z,12.50
2022-10-05T00:03:37.199Z,12.50
2022-10-05T00:06:05.058Z,12.50
2022-10-05T00:08:34.101Z,12.60
2022-10-05T00:11:01.390Z,12.50
2022-10-05T00:13:30.472Z,12.50
2022-10-05T00:16:19.208Z,12.50
2022-10-05T00:18:51.897Z,12.50
2022-10-05T00:21:22.759Z,12.50
2022-10-05T00:23:49.933Z,12.50
2022-10-05T00:26:22.765Z,12.50
2022-10-05T00:28:50.378Z,12.60
2022-10-05T00:31:26.368Z,12.50
2022-10-05T00:33:55.033Z,12.50
2022-10-05T00:36:22.445Z,12.60
2022-10-05T00:38:49.675Z,12.60
2022-10-05T00:41:40.611Z,12.50
2022-10-05T00:44:29.060Z,12.60
2022-10-05T00:47:11.356Z,12.60
2022-10-05T00:50:08.177Z,12.60
2022-10-05T00:52:57.024Z,12.60
2022-10-05T00:55:38.975Z,12.70
2022-10-05T00:58:24.358Z,12.70
2022-10-05T01:01:23.218Z,12.60
2022-10-05T01:04:12.897Z,12.50
2022-10-05T01:07:04.213Z,12.40
2022-10-05T01:10:08.125Z,12.50
2022-10-05T01:12:41.093Z,12.40
2022-10-05T01:15:16.417Z,12.40
2022-10-05T01:18:12.148Z,12.40
2022-10-05T01:20:50.135Z,12.40
2022-10-05T01:23:33.436Z,12.40
2022-10-05T01:26:30.624Z,12.40
2022-10-05T01:29:15.616Z,12.50
2022-10-05T01:32:03.207Z,12.60
2022-10-05T01:34:32.190Z,12.60
2022-10-05T01:37:15.051Z,12.60
2022-10-05T01:40:02.809Z,12.70
2022-10-05T01:42:45.525Z,12.80
2022-10-05T01:46:01.810Z,12.70
2022-10-05T01:49:01.862Z,12.80
2022-10-05T01:51:44.108Z,12.80
2022-10-05T01:54:35.800Z,12.90
2022-10-05T01:57:23.860Z,12.90
2022-10-05T02:00:10.133Z,13.00
2022-10-05T02:02:49.190Z,13.10
2022-10-05T02:05:22.307Z,13.10
2022-10-05T02:08:01.929Z,13.10
2022-10-05T02:10:31.352Z,13.10
2022-10-05T02:13:20.679Z,13.10
2022-10-05T02:16:18.991Z,13.20
2022-10-05T02:19:02.013Z,13.20
2022-10-05T02:21:33.219Z,13.20
2022-10-05T02:24:06.754Z,13.20
2022-10-05T02:26:37.045Z,13.20
2022-10-05T02:29:09.642Z,13.30
2022-10-05T02:31:40.765Z,13.20
2022-10-05T02:34:30.343Z,13.20
2022-10-05T02:37:31.465Z,13.30
2022-10-05T02:40:11.144Z,13.20
2022-10-05T02:42:47.082Z,13.20
2022-10-05T02:45:27.221Z,13.20
2022-10-05T02:48:14.333Z,13.20
2022-10-05T02:51:06.899Z,13.20
2022-10-05T02:53:37.706Z,13.20
2022-10-05T02:56:33.812Z,13.30
2022-10-05T02:59:26.561Z,13.20
2022-10-05T03:01:59.927Z,13.20
2022-10-05T03:04:43.013Z,13.30
2022-10-05T03:07:35.176Z,13.30
2022-10-05T03:10:12.202Z,13.30
2022-10-05T03:13:00.657Z,13.30
2022-10-05T03:15:40.384Z,13.30
2022-10-05T03:18:30.475Z,13.20
2022-10-05T03:21:10.464Z,13.30
2022-10-05T03:23:49.321Z,13.20
2022-10-05T03:26:45.954Z,13.20
2022-10-05T03:29:38.672Z,13.30
2022-10-05T03:32:43.509Z,13.20
2022-10-05T03:35:23.196Z,13.20
2022-10-05T03:38:07.451Z,13.20
2022-10-05T03:40:53.831Z,13.20
2022-10-05T03:43:48.870Z,13.20
2022-10-05T03:46:50.644Z,13.10
2022-10-05T03:49:24.126Z,13.00
2022-10-05T03:52:15.575Z,13.00
2022-10-05T03:54:50.601Z,13.00
2022-10-05T03:57:31.620Z,13.00
2022-10-05T04:00:27.901Z,13.00
2022-10-05T04:03:25.978Z,13.00
2022-10-05T04:06:09.295Z,13.00
2022-10-05T04:08:49.165Z,13.00
2022-10-05T04:11:25.773Z,13.00
2022-10-05T04:13:59.366Z,13.00
2022-10-05T04:16:31.210Z,13.00
2022-10-05T04:19:14.507Z,13.00
2022-10-05T04:21:52.677Z,13.00
2022-10-05T04:24:34.268Z,13.00
2022-10-05T04:27:06.930Z,13.00
2022-10-05T04:29:36.227Z,13.00
2022-10-05T04:32:16.558Z,13.00
2022-10-05T04:35:03.485Z,13.00
2022-10-05T04:37:59.405Z,13.10
2022-10-05T04:40:44.481Z,13.10
2022-10-05T04:43:17.638Z,13.10
2022-10-05T04:46:13.837Z,13.10
2022-10-05T04:49:17.177Z,13.10
2022-10-05T04:52:14.795Z,13.10
2022-10-05T04:55:08.455Z,13.20
2022-10-05T04:57:46.348Z,13.30
2022-10-05T05:00:33.970Z,13.30
2022-10-05T05:03:27.028Z,13.30
2022-10-05T05:06:45.995Z,13.30
2022-10-05T05:09:51.353Z,13.30
2022-10-05T05:12:43.084Z,13.40
2022-10-05T05:15:29.141Z,13.50
2022-10-05T05:18:02.838Z,13.40
2022-10-05T05:21:05.469Z,13.50
2022-10-05T05:23:57.630Z,13.50
2022-10-05T05:27:04.418Z,13.60
2022-10-05T05:29:53.564Z,13.60
2022-10-05T05:32:35.912Z,13.60
2022-10-05T05:35:17.744Z,13.70
2022-10-05T05:37:55.071Z,13.60
2022-10-05T05:40:30.327Z,13.70
2022-10-05T05:43:12.540Z,13.70
2022-10-05T05:46:06.641Z,13.70
2022-10-05T05:48:47.261Z,13.80
2022-10-05T05:51:35.221Z,13.80
2022-10-05T05:54:22.730Z,13.80
2022-10-05T05:57:11.852Z,13.90
2022-10-05T05:59:56.520Z,13.90
2022-10-05T06:02:45.867Z,14.00
2022-10-05T06:05:41.008Z,13.90
2022-10-05T06:08:34.622Z,14.00
2022-10-05T06:11:28.923Z,14.10
2022-10-05T06:14:03.634Z,14.00
2022-10-05T06:16:39.083Z,14.10
2022-10-05T06:19:13.942Z,14.10
2022-10-05T06:22:22.422Z,14.20
2022-10-05T06:24:59.113Z,14.20
2022-10-05T06:27:36.896Z,14.20
2022-10-05T06:30:16.115Z,14.30
2022-10-05T06:32:50.295Z,14.30
2022-10-05T06:35:43.318Z,14.40
2022-10-05T06:38:41.153Z,14.40
2022-10-05T06:41:34.642Z,14.40
2022-10-05T06:44:14.334Z,14.50
2022-10-05T06:47:02.027Z,14.50
2022-10-05T06:49:42.563Z,14.60
2022-10-05T06:52:43.573Z,14.60
2022-10-05T06:55:14.308Z,14.60
2022-10-05T06:57:54.569Z,14.60
2022-10-05T07:00:29.358Z,14.60
2022-10-05T07:03:15.240Z,14.60
2022-10-05T07:05:47.049Z,14.70
2022-10-05T07:08:16.737Z,14.70
2022-10-05T07:10:49.465Z,14.70
2022-10-05T07:13:57.494Z,14.70
2022-10-05T07:16:36.585Z,14.80
2022-10-05T07:19:25.685Z,14.80
2022-10-05T07:22:33.297Z,14.90
2022-10-05T07:25:32.556Z,14.80
2022-10-05T07:28:11.360Z,14.90
2022-10-05T07:30:58.381Z,14.90
2022-10-05T07:33:32.129Z,15.00
2022-10-05T07:36:36.952Z,15.10
2022-10-05T07:39:14.961Z,15.10
2022-10-05T07:41:47.803Z,15.20
2022-10-05T07:44:36.501Z,15.20
2022-10-05T07:47:13.529Z,15.30
2022-10-05T07:50:02.587Z,15.30
2022-10-05T07:52:39.879Z,15.30
2022-10-05T07:55:34.573Z,15.30
2022-10-05T07:58:29.064Z,15.40
2022-10-05T08:01:19.312Z,15.60
2022-10-05T08:03:54.965Z,15.70
2022-10-05T08:06:43.617Z,15.70
2022-10-05T08:09:22.450Z,15.80
2022-10-05T08:12:15.633Z,15.90
2022-10-05T08:15:15.107Z,16.00
2022-10-05T08:18:03.791Z,16.10
2022-10-05T08:20:46.108Z,16.20
2022-10-05T08:23:44.639Z,16.20
2022-10-05T08:26:26.772Z,16.30
2022-10-05T08:29:19.935Z,16.30
2022-10-05T08:31:51.875Z,16.40
2022-10-05T08:34:45.814Z,16.40
2022-10-05T08:37:20.998Z,16.40
2022-10-05T08:39:53.514Z,16.40
2022-10-05T08:42:29.255Z,16.50
2022-10-05T08:45:11.230Z,16.60
2022-10-05T08:48:14.307Z,16.60
2022-10-05T08:50:59.170Z,16.60
2022-10-05T08:53:52.205Z,16.70
2022-10-05T08:56:34.174Z,16.70
2022-10-05T08:59:19.861Z,16.90
2022-10-05T09:02:20.965Z,17.00
2022-10-05T09:04:58.171Z,17.10
2022-10-05T09:07:45.574Z,17.20
2022-10-05T09:10:44.164Z,17.30
2022-10-05T09:13:31.425Z,17.30
2022-10-05T09:16:25.497Z,17.40
2022-10-05T09:19:02.034Z,17.50
2022-10-05T09:21:37.592Z,17.60
2022-10-05T09:24:13.333Z,17.70
2022-10-05T09:26:49.140Z,17.70
2022-10-05T09:29:55.979Z,17.90
2022-10-05T09:32:55.341Z,18.00
2022-10-05T09:35:59.565Z,18.20
2022-10-05T09:39:04.037Z,18.40
2022-10-05T09:41:51.787Z,18.40
2022-10-05T09:44:34.025Z,18.50
2022-10-05T09:47:39.236Z,18.60
2022-10-05T09:50:18.212Z,18.60
2022-10-05T09:53:06.165Z,18.60
2022-10-05T09:56:05.241Z,18.70
2022-10-05T09:58:49.975Z,18.60
2022-10-05T10:01:48.070Z,18.60
2022-10-05T10:04:22.287Z,18.50
2022-10-05T10:07:03.628Z,18.50
2022-10-05T10:09:58.417Z,18.50
2022-10-05T10:12:47.642Z,18.40
2022-10-05T10:15:39.539Z,18.50
2022-10-05T10:18:35.512Z,18.50
2022-10-05T10:21:19.155Z,18.60
2022-10-05T10:24:03.876Z,18.70
2022-10-05T10:26:39.699Z,18.90
2022-10-05T10:29:34.171Z,18.90
2022-10-05T10:32:14.761Z,19.00
2022-10-05T10:34:57.617Z,19.10
2022-10-05T10:37:39.539Z,19.20
2022-10-05T10:40:26.933Z,19.00
2022-10-05T10:43:15.282Z,19.10
2022-10-05T10:46:19.374Z,19.20
2022-10-05T10:49:02.502Z,19.40
2022-10-05T10:52:17.669Z,19.40
2022-10-05T10:55:04.406Z,19.50
2022-10-05T10:57:54.569Z,19.60
2022-10-05T11:00:23.208Z,19.70
2022-10-05T11:03:24.029Z,19.70
2022-10-05T11:06:28.666Z,19.70
2022-10-05T11:09:08.311Z,19.70
2022-10-05T11:11:51.293Z,19.60
2022-10-05T11:14:52.683Z,19.70
2022-10-05T11:17:19.470Z,19.70
2022-10-05T11:20:04.081Z,19.60
2022-10-05T11:22:31.757Z,19.50
2022-10-05T11:25:31.684Z,19.40
2022-10-05T11:28:25.698Z,19.40
2022-10-05T11:31:16.779Z,19.50
2022-10-05T11:34:25.520Z,19.70
2022-10-05T11:37:11.399Z,19.70
2022-10-05T11:39:47.628Z,19.80
2022-10-05T11:42:45.146Z,19.90
2022-10-05T11:45:29.180Z,20.00
2022-10-05T11:48:22.291Z,20.00
2022-10-05T11:51:05.024Z,19.70
2022-10-05T11:53:43.073Z,19.60
2022-10-05T11:56:23.015Z,19.70
2022-10-05T11:59:26.649Z,19.80
2022-10-05T12:02:32.562Z,19.80
2022-10-05T12:05:23.430Z,19.90
2022-10-05T12:08:05.020Z,19.80
2022-10-05T12:10:57.788Z,19.70
2022-10-05T12:13:27.668Z,19.70
2022-10-05T12:16:00.716Z,19.70
2022-10-05T12:18:57.247Z,19.70
2022-10-05T12:21:39.699Z,19.70
2022-10-05T12:24:27.981Z,19.80
2022-10-05T12:27:03.962Z,19.70
2022-10-05T12:29:50.274Z,19.70
2022-10-05T12:32:24.601Z,19.70
2022-10-05T12:35:04.704Z,19.70
2022-10-05T12:37:47.793Z,19.80
2022-10-05T12:40:25.166Z,19.80
2022-10-05T12:43:20.525Z,19.80
2022-10-05T12:46:00.706Z,19.80
2022-10-05T12:48:53.156Z,19.80
2022-10-05T12:51:28.667Z,19.80
2022-10-05T12:54:32.124Z,19.80
2022-10-05T12:57:39.174Z,19.80
2022-10-05T13:00:13.290Z,19.70
2022-10-05T13:02:48.385Z,19.70
2022-10-05T13:05:32.546Z,19.70
2022-10-05T13:08:13.545Z,19.80
2022-10-05T13:11:01.182Z,19.90
2022-10-05T13:13:42.247Z,20.00
2022-10-05T13:16:18.156Z,20.00
2022-10-05T13:19:02.391Z,20.00
2022-10-05T13:21:46.622Z,20.00
2022-10-05T13:24:53.285Z,20.00
2022-10-05T13:27:36.649Z,20.10
2022-10-05T13:30:22.265Z,20.10
2022-10-05T13:33:14.969Z,20.10
2022-10-05T13:36:06.493Z,20.20
2022-10-05T13:39:14.189Z,20.10
2022-10-05T13:42:09.412Z,20.20
2022-10-05T13:45:02.399Z,20.20
2022-10-05T13:47:39.196Z,20.30
2022-10-05T13:50:20.389Z,20.30
2022-10-05T13:52:59.072Z,20.30
2022-10-05T13:55:45.227Z,20.30
2022-10-05T13:58:15.479Z,20.30
2022-10-05T14:00:57.978Z,20.30
2022-10-05T14:03:37.177Z,20.30
2022-10-05T14:06:13.973Z,20.30
2022-10-05T14:08:51.054Z,20.30
2022-10-05T14:11:26.686Z,20.40
2022-10-05T14:14:10.705Z,20.40
2022-10-05T14:16:58.951Z,20.50
2022-10-05T14:19:30.901Z,20.50
2022-10-05T14:22:03.365Z,20.50
2022-10-05T14:24:44.744Z,20.50
2022-10-05T14:27:25.063Z,20.60
2022-10-05T14:30:08.258Z,20.60
2022-10-05T14:33:12.916Z,20.70
2022-10-05T14:35:51.508Z,20.80
2022-10-05T14:38:25.745Z,20.90
2022-10-05T14:41:10.938Z,20.90
2022-10-05T14:43:38.490Z,20.90
2022-10-05T14:46:26.997Z,21.00
2022-10-05T14:49:17.218Z,20.90
2022-10-05T14:51:44.268Z,20.90
2022-10-05T14:54:41.291Z,20.90
2022-10-05T14:57:33.566Z,20.80
2022-10-05T15:00:16.629Z,20.80
2022-10-05T15:03:18.658Z,20.80
2022-10-05T15:05:48.794Z,20.70
2022-10-05T15:08:39.008Z,20.60
2022-10-05T15:11:42.552Z,20.50
2022-10-05T15:14:21.902Z,20.50
2022-10-05T15:16:57.124Z,20.40
2022-10-05T15:19:34.748Z,20.30
2022-10-05T15:22:25.277Z,20.30
2022-10-05T15:28:10.703Z,20.30
2022-10-05T15:30:49.796Z,20.20
2022-10-05T15:33:46.364Z,20.20
2022-10-05T15:36:32.364Z,20.10
2022-10-05T15:39:13.206Z,20.00
2022-10-05T15:42:15.331Z,20.00
2022-10-05T15:45:06.423Z,19.90
2022-10-05T15:47:56.193Z,19.80
2022-10-05T15:50:32.439Z,19.80
2022-10-05T15:53:08.569Z,19.70
2022-10-05T15:55:50.280Z,19.60
2022-10-05T15:58:54.056Z,19.50
2022-10-05T16:01:29.270Z,19.40
2022-10-05T16:04:01.886Z,19.40
2022-10-05T16:07:11.584Z,19.30
2022-10-05T16:09:56.864Z,19.10
2022-10-05T16:13:05.184Z,19.10
2022-10-05T16:15:41.351Z,18.90
2022-10-05T16:18:23.647Z,18.90
2022-10-05T16:21:00.007Z,18.80
2022-10-05T16:23:53.977Z,18.80
2022-10-05T16:26:57.587Z,18.70
2022-10-05T16:29:45.554Z,18.50
2022-10-05T16:32:12.344Z,18.20
2022-10-05T16:34:41.831Z,18.00
2022-10-05T16:37:13.946Z,17.90
2022-10-05T16:39:45.818Z,17.80
2022-10-05T16:42:34.812Z,17.80
2022-10-05T16:45:13.629Z,17.80
2022-10-05T16:47:58.097Z,17.80
2022-10-05T16:50:33.625Z,17.80
2022-10-05T16:53:12.269Z,17.70
2022-10-05T16:55:44.574Z,17.70
2022-10-05T16:58:32.227Z,17.70
2022-10-05T17:01:22.570Z,17.70
2022-10-05T17:04:21.104Z,17.70
2022-10-05T17:07:06.169Z,17.70
2022-10-05T17:10:04.718Z,17.70
2022-10-05T17:12:56.534Z,17.70
2022-10-05T17:15:29.293Z,17.70
2022-10-05T17:18:27.230Z,17.70
2022-10-05T17:21:09.347Z,17.80
2022-10-05T17:23:41.887Z,17.70
2022-10-05T17:26:34.557Z,17.80
2022-10-05T17:29:15.359Z,17.80
2022-10-05T17:32:16.161Z,17.90
2022-10-05T17:35:18.140Z,17.80
2022-10-05T17:38:15.105Z,17.80
2022-10-05T17:41:16.513Z,17.70
2022-10-05T17:44:11.219Z,17.60
2022-10-05T17:46:49.704Z,17.60
2022-10-05T17:49:37.969Z,17.70
2022-10-05T17:52:41.280Z,17.70
2022-10-05T17:55:27.482Z,17.70
2022-10-05T17:57:58.738Z,17.80
2022-10-05T18:00:41.005Z,17.80
2022-10-05T18:03:34.721Z,17.90
2022-10-05T18:06:26.440Z,17.80
2022-10-05T18:09:22.773Z,17.80
2022-10-05T18:12:08.121Z,17.80
2022-10-05T18:15:03.780Z,17.80
2022-10-05T18:17:45.573Z,17.70
2022-10-05T18:20:18.011Z,17.80
2022-10-05T18:22:50.815Z,17.80
2022-10-05T18:25:56.111Z,17.80
2022-10-05T18:28:44.916Z,17.80
2022-10-05T18:31:46.962Z,17.80
2022-10-05T18:34:38.575Z,17.80
2022-10-05T18:37:30.200Z,17.80
2022-10-05T18:40:21.261Z,17.90
2022-10-05T18:43:23.608Z,18.00
2022-10-05T18:46:08.130Z,18.00
2022-10-05T18:48:54.293Z,18.00
2022-10-05T18:51:35.210Z,18.00
2022-10-05T18:54:07.901Z,18.00
2022-10-05T18:56:50.645Z,18.00
2022-10-05T18:59:43.764Z,18.10
2022-10-05T19:02:30.737Z,18.10
2022-10-05T19:05:29.162Z,18.10
2022-10-05T19:08:11.938Z,18.10
2022-10-05T19:10:46.192Z,18.20
2022-10-05T19:13:37.826Z,18.20
2022-10-05T19:16:24.927Z,18.20
2022-10-05T19:19:12.314Z,18.20
2022-10-05T19:22:02.660Z,18.20
2022-10-05T19:24:49.509Z,18.20
2022-10-05T19:27:54.494Z,18.20
2022-10-05T19:30:30.106Z,18.10
2022-10-05T19:33:38.866Z,18.20
2022-10-05T19:36:24.385Z,18.20
2022-10-05T19:39:11.152Z,18.20
2022-10-05T19:42:04.313Z,18.20
2022-10-05T19:44:35.331Z,18.20
2022-10-05T19:47:29.886Z,18.10
2022-10-05T19:49:57.965Z,18.10
2022-10-05T19:52:40.785Z,18.10
2022-10-05T19:55:16.729Z,18.10
2022-10-05T19:57:57.554Z,18.10
2022-10-05T20:00:27.810Z,18.10
2022-10-05T20:19:06.850Z,18.00
2022-10-05T20:21:48.622Z,18.10
2022-10-05T20:24:19.840Z,18.20
2022-10-05T20:27:07.263Z,18.20
2022-10-05T20:29:52.310Z,18.20
2022-10-05T20:32:19.434Z,18.20
2022-10-05T20:34:47.831Z,18.20
2022-10-05T20:37:18.009Z,18.20
2022-10-05T20:39:45.476Z,18.20
2022-10-05T20:42:14.067Z,18.20
2022-10-05T20:44:41.145Z,18.20
2022-10-05T20:47:10.721Z,18.30
2022-10-05T20:49:41.277Z,18.20
2022-10-05T20:52:10.962Z,18.20
2022-10-05T20:54:39.123Z,18.20
2022-10-05T20:57:06.686Z,18.20
2022-10-05T20:59:34.398Z,18.10
2022-10-05T21:02:02.003Z,18.10
2022-10-05T21:04:40.890Z,18.00
2022-10-05T21:07:08.907Z,17.90
2022-10-05T21:09:38.541Z,17.80
2022-10-05T21:12:08.057Z,17.40
2022-10-05T21:14:36.347Z,17.00
2022-10-05T21:17:03.800Z,16.70
2022-10-05T21:19:30.737Z,16.50
2022-10-05T21:22:02.520Z,16.30
2022-10-05T21:24:29.323Z,16.10
2022-10-05T21:26:57.629Z,16.00
2022-10-05T21:29:24.585Z,15.90
2022-10-05T21:31:51.544Z,15.80
2022-10-05T21:34:18.527Z,15.90
2022-10-05T21:36:45.321Z,15.80
2022-10-05T21:39:12.193Z,15.80
2022-10-05T21:41:39.053Z,15.80
2022-10-05T21:44:06.822Z,15.80
2022-10-05T21:46:36.462Z,15.80
2022-10-05T21:49:03.659Z,15.80
2022-10-05T21:51:30.611Z,15.90
2022-10-05T21:54:02.750Z,15.90
2022-10-05T21:56:35.022Z,15.90
2022-10-05T21:59:04.540Z,15.90
2022-10-05T22:01:31.421Z,15.90
2022-10-05T22:03:58.279Z,15.90
2022-10-05T22:06:25.168Z,15.90
2022-10-05T22:08:51.953Z,15.90
2022-10-05T22:11:18.840Z,15.90
2022-10-05T22:13:50.844Z,15.90
2022-10-05T22:16:20.010Z,15.90
2022-10-05T22:18:47.205Z,15.80
2022-10-05T22:21:14.691Z,15.90
2022-10-05T22:23:43.338Z,15.90
2022-10-05T22:26:13.465Z,15.80
2022-10-05T22:28:41.161Z,15.80
2022-10-05T22:31:09.595Z,15.40
2022-10-05T22:33:37.291Z,15.00
2022-10-05T22:36:05.496Z,14.80
2022-10-05T22:38:32.583Z,14.50
2022-10-05T22:40:59.432Z,14.20
2022-10-05T22:43:29.094Z,14.00
2022-10-05T22:45:56.232Z,13.90
2022-10-05T22:48:23.219Z,13.80
2022-10-05T22:50:50.076Z,13.70
2022-10-05T22:53:16.968Z,13.70
2022-10-05T22:55:43.807Z,13.70
2022-10-05T22:58:10.685Z,13.60
2022-10-05T23:00:59.067Z,13.50
2022-10-05T23:03:24.426Z,13.50
2022-10-05T23:05:57.579Z,13.50
2022-10-05T23:08:24.835Z,13.50
2022-10-05T23:10:52.615Z,13.50
2022-10-05T23:13:19.474Z,13.50
2022-10-05T23:15:46.298Z,13.50
2022-10-05T23:18:13.543Z,13.50
2022-10-05T23:20:40.357Z,13.40
2022-10-05T23:23:07.224Z,13.40
2022-10-05T23:25:34.457Z,13.50
2022-10-05T23:28:02.682Z,13.60
2022-10-05T23:30:29.744Z,13.60
2022-10-05T23:32:56.688Z,13.60
2022-10-05T23:35:23.564Z,13.60
2022-10-05T23:37:50.379Z,13.60
2022-10-05T23:40:17.301Z,13.60
2022-10-05T23:42:44.099Z,13.60
2022-10-05T23:45:11.901Z,13.60
2022-10-05T23:47:39.844Z,13.60
2022-10-05T23:50:07.861Z,13.50
2022-10-05T23:52:35.356Z,13.50
2022-10-05T23:55:06.165Z,13.50
2022-10-05T23:57:33.090Z,13.50
